createdAt,value
2022-09-12T00:01:22.203Z,86.30
2022-09-12T00:03:51.061Z,86.44
2022-09-12T00:06:23.153Z,86.60
2022-09-12T00:08:50.525Z,86.72
2022-09-12T00:11:17.047Z,86.69
2022-09-12T00:13:43.606Z,86.59
2022-09-12T00:16:17.298Z,86.72
2022-09-12T00:18:45.573Z,86.61
2022-09-12T00:21:12.687Z,87.12
2022-09-12T00:23:39.451Z,87.29
2022-09-12T00:26:06.110Z,86.85
2022-09-12T00:28:34.390Z,86.90
2022-09-12T00:31:03.300Z,87.09
2022-09-12T00:33:30.402Z,87.77
2022-09-12T00:35:56.891Z,88.04
2022-09-12T00:38:23.561Z,88.01
2022-09-12T00:40:50.000Z,87.87
2022-09-12T00:43:37.239Z,87.75
2022-09-12T00:46:22.328Z,88.06
2022-09-12T00:48:51.461Z,88.39
2022-09-12T00:51:18.561Z,88.50
2022-09-12T00:53:45.684Z,88.53
2022-09-12T00:56:13.327Z,88.39
2022-09-12T00:58:43.147Z,88.09
2022-09-12T01:01:09.690Z,88.11
2022-09-12T01:03:36.266Z,88.07
2022-09-12T01:06:02.801Z,87.88
2022-09-12T01:09:19.419Z,88.01
2022-09-12T01:19:52.084Z,87.92
2022-09-12T01:22:36.815Z,88.27
2022-09-12T01:29:30.940Z,88.19
2022-09-12T01:32:00.488Z,88.45
2022-09-12T01:34:27.565Z,88.18
2022-09-12T01:36:57.206Z,88.30
2022-09-12T01:39:51.985Z,88.72
2022-09-12T01:42:26.350Z,89.03
2022-09-12T01:45:15.922Z,88.65
2022-09-12T01:47:47.678Z,88.53
2022-09-12T01:50:27.415Z,88.67
2022-09-12T01:53:07.506Z,88.74
2022-09-12T01:55:58.319Z,89.39
2022-09-12T01:58:27.845Z,89.23
2022-09-12T02:05:30.819Z,89.90
2022-09-12T02:08:22.692Z,89.93
2022-09-12T02:10:59.099Z,89.97
2022-09-12T02:13:39.147Z,89.80
2022-09-12T02:16:31.135Z,90.58
2022-09-12T02:19:22.840Z,90.29
2022-09-12T02:21:53.271Z,90.35
2022-09-12T02:32:36.331Z,92.60
2022-09-12T02:35:10.884Z,92.03
2022-09-12T02:37:49.526Z,91.41
2022-09-12T02:44:07.629Z,89.40
2022-09-12T02:46:40.463Z,87.69
2022-09-12T02:53:31.889Z,87.34
2022-09-12T02:56:14.574Z,86.24
2022-09-12T02:58:45.830Z,84.90
2022-09-12T03:01:15.533Z,84.31
2022-09-12T03:04:00.535Z,84.73
2022-09-12T03:06:54.116Z,85.22
2022-09-12T03:09:52.504Z,85.99
2022-09-12T03:12:28.242Z,86.03
2022-09-12T03:15:21.149Z,86.17
2022-09-12T03:17:55.874Z,86.38
2022-09-12T03:20:36.246Z,86.30
2022-09-12T03:27:23.592Z,86.82
2022-09-12T03:29:59.599Z,86.87
2022-09-12T03:32:42.283Z,87.25
2022-09-12T03:35:22.859Z,87.32
2022-09-12T03:42:23.155Z,88.01
2022-09-12T03:47:36.684Z,88.78
2022-09-12T03:50:16.470Z,88.96
2022-09-12T03:52:43.415Z,89.32
2022-09-12T03:55:13.678Z,89.40
2022-09-12T03:57:40.355Z,89.59
2022-09-12T04:00:31.365Z,89.51
2022-09-12T04:02:58.026Z,89.58
2022-09-12T04:05:25.239Z,89.82
2022-09-12T04:12:23.307Z,89.25
2022-09-12T04:14:55.765Z,88.89
2022-09-12T04:17:22.335Z,88.95
2022-09-12T04:28:18.774Z,87.80
2022-09-12T04:30:47.591Z,87.36
2022-09-12T04:33:15.075Z,86.92
2022-09-12T04:35:42.504Z,86.19
2022-09-12T04:38:09.445Z,86.24
2022-09-12T04:40:36.487Z,86.22
2022-09-12T04:43:03.331Z,85.80
2022-09-12T04:45:30.110Z,84.64
2022-09-12T04:48:02.859Z,83.83
2022-09-12T04:50:34.332Z,83.93
2022-09-12T04:53:01.107Z,83.34
2022-09-12T04:55:33.259Z,82.98
2022-09-12T04:58:28.449Z,82.88
2022-09-12T05:01:08.683Z,82.92
2022-09-12T05:03:38.499Z,82.60
2022-09-12T05:06:08.064Z,81.55
2022-09-12T05:08:35.233Z,79.11
2022-09-12T05:11:06.563Z,77.80
2022-09-12T05:13:35.735Z,77.51
2022-09-12T05:16:28.201Z,76.56
2022-09-12T05:18:57.377Z,76.84
2022-09-12T05:21:33.728Z,76.70
2022-09-12T05:24:09.368Z,76.28
2022-09-12T05:26:36.864Z,75.20
2022-09-12T05:29:08.250Z,75.02
2022-09-12T05:35:18.202Z,75.32
2022-09-12T05:41:33.620Z,75.40
2022-09-12T05:44:03.885Z,75.37
2022-09-12T05:46:36.155Z,75.79
2022-09-12T05:49:29.634Z,75.32
2022-09-12T05:51:56.875Z,75.45
2022-09-12T05:54:27.264Z,75.52
2022-09-12T06:01:31.085Z,74.06
2022-09-12T06:04:01.783Z,74.07
2022-09-12T06:11:04.164Z,74.25
2022-09-12T06:17:18.288Z,73.78
2022-09-12T06:19:55.056Z,74.12
2022-09-12T06:22:22.128Z,73.11
2022-09-12T06:24:48.673Z,72.84
2022-09-12T06:27:15.564Z,72.03
2022-09-12T06:30:08.051Z,71.47
2022-09-12T06:32:37.624Z,69.76
2022-09-12T06:35:10.284Z,69.48
2022-09-12T06:42:40.139Z,69.68
2022-09-12T06:45:25.767Z,68.92
2022-09-12T06:48:36.441Z,69.32
2022-09-12T06:51:08.687Z,66.97
2022-09-12T06:53:53.168Z,65.75
2022-09-12T06:56:42.721Z,66.19
2022-09-12T06:59:25.163Z,66.62
2022-09-12T07:02:03.367Z,65.31
2022-09-12T07:04:56.999Z,65.20
2022-09-12T07:07:44.021Z,64.15
2022-09-12T07:10:15.510Z,62.66
2022-09-12T07:12:48.558Z,60.47
2022-09-12T07:15:35.640Z,61.45
2022-09-12T07:18:32.099Z,63.60
2022-09-12T07:21:10.824Z,62.14
2022-09-12T07:23:43.533Z,61.36
2022-09-12T07:29:37.201Z,59.00
2022-09-12T07:32:11.558Z,60.58
2022-09-12T07:34:45.211Z,60.81
2022-09-12T07:37:15.259Z,59.17
2022-09-12T07:39:44.700Z,59.96
2022-09-12T07:42:14.815Z,59.93
2022-09-12T07:44:41.412Z,58.67
2022-09-12T07:47:11.848Z,58.61
2022-09-12T07:49:39.716Z,58.89
2022-09-12T07:52:06.700Z,59.12
2022-09-12T07:55:07.057Z,59.65
2022-09-12T07:57:58.682Z,59.83
2022-09-12T08:08:18.793Z,56.92
2022-09-12T08:10:49.408Z,56.89
2022-09-12T08:13:21.124Z,56.27
2022-09-12T08:15:49.346Z,56.82
2022-09-12T08:18:21.983Z,56.80
2022-09-12T08:20:49.678Z,55.20
2022-09-12T08:23:21.531Z,54.84
2022-09-12T08:25:57.517Z,53.96
2022-09-12T08:28:24.722Z,53.20
2022-09-12T08:30:53.322Z,52.58
2022-09-12T08:33:20.424Z,53.46
2022-09-12T08:35:47.141Z,52.92
2022-09-12T08:38:13.625Z,54.14
2022-09-12T08:41:04.968Z,53.72
2022-09-12T08:43:57.187Z,54.03
2022-09-12T08:46:30.938Z,54.22
2022-09-12T08:48:59.756Z,54.59
2022-09-12T08:51:34.729Z,54.93
2022-09-12T08:54:16.644Z,54.81
2022-09-12T08:57:13.528Z,54.51
2022-09-12T08:59:44.312Z,54.31
2022-09-12T09:02:23.334Z,54.71
2022-09-12T09:04:52.029Z,55.01
2022-09-12T09:07:40.713Z,54.70
2022-09-12T09:10:13.453Z,54.33
2022-09-12T09:13:01.855Z,52.76
2022-09-12T09:15:31.531Z,52.71
2022-09-12T09:18:05.840Z,53.49
2022-09-12T09:20:32.893Z,52.94
2022-09-12T09:23:12.680Z,53.20
2022-09-12T09:25:49.581Z,51.81
2022-09-12T09:28:19.605Z,51.65
2022-09-12T09:30:46.634Z,51.97
2022-09-12T09:33:20.698Z,52.31
2022-09-12T09:35:51.687Z,52.52
2022-09-12T09:38:18.278Z,52.18
2022-09-12T09:48:24.179Z,52.02
2022-09-12T09:51:01.173Z,51.95
2022-09-12T09:53:42.832Z,51.61
2022-09-12T09:56:33.677Z,51.56
2022-09-12T09:59:11.380Z,51.14
2022-09-12T10:02:10.457Z,50.99
2022-09-12T10:04:41.559Z,51.83
2022-09-12T10:07:18.229Z,51.79
2022-09-12T10:13:37.593Z,50.21
2022-09-12T10:16:19.948Z,49.69
2022-09-12T10:18:46.594Z,49.48
2022-09-12T10:21:31.756Z,50.71
2022-09-12T10:24:02.698Z,51.64
2022-09-12T10:26:37.675Z,52.13
2022-09-12T10:29:13.668Z,52.06
2022-09-12T10:31:55.036Z,52.50
2022-09-12T10:34:48.210Z,51.68
2022-09-12T10:37:25.832Z,51.00
2022-09-12T10:40:22.065Z,50.45
2022-09-12T10:43:01.235Z,50.78
2022-09-12T10:45:35.772Z,50.67
2022-09-12T10:48:35.026Z,49.88
2022-09-12T10:51:13.829Z,49.48
2022-09-12T11:04:43.740Z,49.21
2022-09-12T11:07:42.554Z,49.36
2022-09-12T11:14:43.174Z,47.96
2022-09-12T11:22:05.660Z,47.83
2022-09-12T11:29:35.398Z,45.42
2022-09-12T11:32:13.525Z,45.33
2022-09-12T11:34:49.284Z,45.13
2022-09-12T11:37:31.357Z,44.36
2022-09-12T11:40:07.960Z,45.19
2022-09-12T11:42:41.461Z,45.61
2022-09-12T11:45:36.687Z,46.28
2022-09-12T11:52:37.586Z,45.43
2022-09-12T11:59:30.574Z,46.04
2022-09-12T12:01:59.319Z,45.81
2022-09-12T12:04:33.078Z,44.66
2022-09-12T12:07:09.165Z,44.73
2022-09-12T12:09:50.151Z,44.28
2022-09-12T12:16:54.461Z,43.94
2022-09-12T12:24:11.113Z,44.22
2022-09-12T12:29:48.229Z,45.64
2022-09-12T12:32:28.818Z,45.95
2022-09-12T12:35:14.882Z,44.77
2022-09-12T12:37:49.598Z,44.86
2022-09-12T12:40:24.843Z,45.50
2022-09-12T12:42:55.989Z,45.48
2022-09-12T12:46:06.576Z,45.41
2022-09-12T12:48:36.827Z,45.09
2022-09-12T12:51:23.528Z,45.74
2022-09-12T12:53:51.848Z,45.84
2022-09-12T12:56:29.616Z,46.32
2022-09-12T12:59:03.871Z,46.26
2022-09-12T13:01:40.350Z,46.08
2022-09-12T13:04:21.225Z,45.84
2022-09-12T13:07:01.058Z,45.13
2022-09-12T13:09:43.296Z,44.61
2022-09-12T13:12:35.546Z,44.13
2022-09-12T13:19:32.030Z,43.37
2022-09-12T13:26:24.769Z,44.02
2022-09-12T13:33:28.734Z,44.45
2022-09-12T13:36:19.470Z,43.45
2022-09-12T13:39:23.633Z,43.31
2022-09-12T13:41:57.008Z,43.36
2022-09-12T13:44:26.023Z,43.23
2022-09-12T13:46:54.522Z,43.71
2022-09-12T13:49:36.263Z,43.61
2022-09-12T13:52:03.315Z,43.42
2022-09-12T13:54:30.467Z,44.02
2022-09-12T13:56:57.333Z,43.72
2022-09-12T13:59:24.191Z,43.53
2022-09-12T14:01:52.234Z,43.75
2022-09-12T14:04:38.344Z,43.48
2022-09-12T14:07:19.678Z,43.54
2022-09-12T14:09:52.537Z,43.45
2022-09-12T14:12:24.781Z,43.70
2022-09-12T14:14:52.461Z,43.60
2022-09-12T14:17:25.497Z,44.47
2022-09-12T14:19:52.368Z,45.26
2022-09-12T14:22:19.154Z,46.04
2022-09-12T14:24:51.163Z,46.39
2022-09-12T14:27:28.516Z,46.80
2022-09-12T14:30:03.307Z,46.72
2022-09-12T14:32:30.233Z,46.14
2022-09-12T14:35:03.790Z,45.95
2022-09-12T14:37:39.465Z,46.06
2022-09-12T14:40:18.353Z,45.74
2022-09-12T14:42:46.261Z,45.76
2022-09-12T14:45:33.213Z,45.72
2022-09-12T14:48:00.450Z,45.80
2022-09-12T14:50:40.736Z,46.39
2022-09-12T14:53:18.482Z,46.25
2022-09-12T14:55:49.304Z,46.02
2022-09-12T14:58:26.475Z,46.39
2022-09-12T15:01:01.947Z,46.92
2022-09-12T15:03:51.235Z,47.18
2022-09-12T15:06:36.270Z,47.46
2022-09-12T15:09:06.891Z,47.34
2022-09-12T15:11:34.137Z,47.52
2022-09-12T15:14:27.331Z,47.77
2022-09-12T15:16:54.291Z,47.98
2022-09-12T15:19:21.016Z,48.37
2022-09-12T15:21:47.824Z,48.60
2022-09-12T15:24:15.078Z,48.91
2022-09-12T15:26:44.294Z,49.13
2022-09-12T15:29:11.545Z,49.43
2022-09-12T15:31:39.530Z,49.72
2022-09-12T15:34:08.477Z,49.94
2022-09-12T15:36:35.468Z,50.07
2022-09-12T15:39:11.805Z,50.33
2022-09-12T15:41:41.926Z,50.62
2022-09-12T15:44:12.511Z,50.86
2022-09-12T15:46:42.410Z,51.05
2022-09-12T15:49:09.601Z,51.23
2022-09-12T15:51:38.603Z,51.45
2022-09-12T15:54:06.220Z,51.83
2022-09-12T15:56:36.506Z,52.00
2022-09-12T15:59:04.448Z,52.23
2022-09-12T16:01:31.389Z,52.59
2022-09-12T16:03:58.596Z,52.51
2022-09-12T16:06:32.433Z,52.44
2022-09-12T16:09:02.074Z,52.41
2022-09-12T16:11:30.064Z,52.33
2022-09-12T16:13:58.064Z,52.12
2022-09-12T16:16:25.427Z,52.09
2022-09-12T16:18:52.496Z,51.94
2022-09-12T16:21:20.194Z,51.94
2022-09-12T16:23:48.040Z,51.88
2022-09-12T16:26:15.567Z,51.73
2022-09-12T16:28:43.193Z,51.60
2022-09-12T16:31:15.220Z,51.32
2022-09-12T16:33:45.433Z,51.39
2022-09-12T16:36:29.187Z,51.28
2022-09-12T16:39:37.386Z,51.51
2022-09-12T16:42:14.416Z,51.39
2022-09-12T16:44:55.436Z,51.53
2022-09-12T16:47:42.906Z,51.51
2022-09-12T16:50:28.481Z,51.78
2022-09-12T16:53:09.463Z,51.74
2022-09-12T16:56:53.258Z,51.77
2022-09-12T17:06:36.263Z,54.03
2022-09-12T17:07:53.723Z,55.95
2022-09-12T17:28:35.475Z,61.50
2022-09-12T17:32:02.735Z,62.31
2022-09-12T17:38:53.874Z,65.01
2022-09-12T17:41:45.740Z,66.04
2022-09-12T18:03:12.977Z,67.02
2022-09-12T18:06:03.269Z,67.69
2022-09-12T18:08:54.054Z,67.73
2022-09-12T18:11:21.830Z,67.27
2022-09-12T18:13:55.318Z,66.83
2022-09-12T18:16:23.411Z,66.75
2022-09-12T18:18:53.310Z,66.97
2022-09-12T18:21:23.395Z,67.29
2022-09-12T18:23:54.419Z,67.01
2022-09-12T18:26:57.080Z,65.90
2022-09-12T18:30:04.299Z,63.51
2022-09-12T18:32:40.901Z,62.26
2022-09-12T18:39:17.373Z,61.96
2022-09-12T18:45:07.464Z,60.90
2022-09-12T18:47:41.462Z,60.15
2022-09-12T18:50:33.199Z,60.47
2022-09-12T18:53:09.118Z,59.61
2022-09-12T18:55:35.884Z,58.87
2022-09-12T18:58:21.966Z,57.66
2022-09-12T19:01:19.728Z,56.55
2022-09-12T19:06:51.010Z,55.64
2022-09-12T19:12:44.803Z,55.89
2022-09-12T19:15:32.779Z,55.17
2022-09-12T19:18:02.721Z,55.30
2022-09-12T19:23:48.316Z,55.97
2022-09-12T19:26:37.306Z,55.94
2022-09-12T19:29:35.254Z,56.45
2022-09-12T19:32:12.248Z,56.86
2022-09-12T19:34:51.773Z,57.03
2022-09-12T19:37:38.833Z,57.34
2022-09-12T19:40:09.878Z,57.18
2022-09-12T19:42:46.316Z,57.03
2022-09-12T19:45:18.541Z,57.04
2022-09-12T19:47:48.006Z,57.06
2022-09-12T19:50:19.939Z,57.15
2022-09-12T19:52:54.249Z,57.20
2022-09-12T19:55:28.463Z,57.50
2022-09-12T19:58:10.255Z,57.41
2022-09-12T20:00:37.419Z,57.53
2022-09-12T20:03:09.791Z,57.77
2022-09-12T20:05:40.751Z,57.91
2022-09-12T20:08:09.502Z,58.12
2022-09-12T20:10:41.728Z,58.26
2022-09-12T20:13:11.436Z,58.54
2022-09-12T20:15:48.410Z,58.67
2022-09-12T20:18:16.475Z,59.04
2022-09-12T20:20:43.382Z,59.20
2022-09-12T20:23:10.035Z,59.18
2022-09-12T20:25:43.037Z,59.18
2022-09-12T20:28:33.086Z,59.29
2022-09-12T20:31:16.781Z,59.36
2022-09-12T20:33:43.697Z,59.64
2022-09-12T20:36:12.430Z,60.13
2022-09-12T20:38:40.098Z,60.10
2022-09-12T20:41:21.928Z,60.04
2022-09-12T20:43:57.049Z,60.14
2022-09-12T20:46:32.469Z,60.35
2022-09-12T20:49:00.848Z,60.70
2022-09-12T20:51:34.681Z,60.80
2022-09-12T20:54:05.985Z,61.06
2022-09-12T20:56:33.433Z,61.32
2022-09-12T20:59:11.907Z,61.58
2022-09-12T21:01:38.616Z,61.82
2022-09-12T21:04:05.086Z,62.03
2022-09-12T21:06:34.816Z,62.14
2022-09-12T21:09:01.386Z,62.30
2022-09-12T21:11:28.395Z,62.29
2022-09-12T21:13:57.270Z,62.31
2022-09-12T21:16:25.596Z,62.11
2022-09-12T21:18:54.353Z,62.38
2022-09-12T21:21:31.074Z,62.40
2022-09-12T21:24:04.250Z,62.54
2022-09-12T21:26:40.289Z,62.42
2022-09-12T21:29:09.050Z,62.40
2022-09-12T21:31:36.064Z,62.65
2022-09-12T21:34:02.893Z,62.87
2022-09-12T21:36:34.728Z,63.25
2022-09-12T21:39:06.842Z,63.40
2022-09-12T21:41:44.448Z,63.21
2022-09-12T21:44:18.889Z,63.35
2022-09-12T21:46:59.427Z,63.06
2022-09-12T21:49:39.653Z,63.18
2022-09-12T21:52:06.417Z,62.95
2022-09-12T21:54:35.457Z,62.74
2022-09-12T22:02:59.121Z,64.02
2022-09-12T22:08:29.127Z,63.83
2022-09-12T22:11:22.357Z,64.13
2022-09-12T22:14:21.063Z,64.49
2022-09-12T22:17:21.439Z,64.61
2022-09-12T22:19:51.187Z,64.74
2022-09-12T22:22:36.574Z,64.95
2022-09-12T22:25:19.652Z,65.02
2022-09-12T22:28:23.073Z,65.29
2022-09-12T22:30:52.666Z,65.37
2022-09-12T22:33:20.543Z,65.57
2022-09-12T22:35:58.653Z,65.39
2022-09-12T22:38:56.610Z,65.30
2022-09-12T22:41:23.274Z,65.61
2022-09-12T22:43:52.610Z,65.80
2022-09-12T22:46:22.889Z,65.59
2022-09-12T22:48:57.217Z,65.77
2022-09-12T22:51:26.243Z,66.03
2022-09-12T22:53:53.170Z,66.12
2022-09-12T22:56:19.921Z,66.03
2022-09-12T22:58:46.688Z,66.00
2022-09-12T23:01:13.767Z,66.00
2022-09-12T23:03:40.693Z,66.17
2022-09-12T23:06:07.962Z,66.28
2022-09-12T23:08:35.183Z,66.50
2022-09-12T23:11:12.376Z,66.74
2022-09-12T23:13:40.807Z,67.07
2022-09-12T23:16:14.107Z,67.11
2022-09-12T23:18:48.449Z,67.37
2022-09-12T23:21:16.244Z,67.62
2022-09-12T23:23:42.897Z,67.84
2022-09-12T23:26:14.423Z,68.03
2022-09-12T23:28:41.857Z,67.70
2022-09-12T23:31:11.818Z,67.80
2022-09-12T23:33:40.997Z,67.84
2022-09-12T23:36:10.784Z,68.11
2022-09-12T23:38:37.596Z,67.93
2022-09-12T23:41:04.621Z,67.87
2022-09-12T23:43:31.485Z,68.00
2022-09-12T23:45:58.421Z,67.95
2022-09-12T23:48:25.230Z,68.28
2022-09-12T23:50:52.162Z,68.56
2022-09-12T23:53:19.385Z,68.59
2022-09-12T23:55:46.460Z,69.10
2022-09-12T23:58:13.139Z,68.75
